createdAt,value
2018-12-15T00:02:24.435Z,-0.40
2018-12-15T00:04:51.423Z,-0.40
2018-12-15T00:07:18.444Z,-0.30
2018-12-15T00:09:45.447Z,-0.20
2018-12-15T00:12:12.418Z,-0.20
2018-12-15T00:14:39.559Z,-0.20
2018-12-15T00:17:06.585Z,-0.20
2018-12-15T00:19:33.607Z,-0.10
2018-12-15T00:22:00.642Z,-0.10
2018-12-15T00:24:27.639Z,-0.10
2018-12-15T00:26:54.653Z,-0.10
2018-12-15T00:29:21.634Z,-0.10
2018-12-15T00:31:48.647Z,-0.20
2018-12-15T00:34:15.674Z,-0.10
2018-12-15T00:36:42.671Z,0.00
2018-12-15T00:39:09.651Z,0.00
2018-12-15T00:41:36.654Z,-0.10
2018-12-15T00:44:03.680Z,-0.20
2018-12-15T00:46:30.758Z,-0.20
2018-12-15T00:48:57.774Z,-0.30
2018-12-15T00:51:24.810Z,-0.20
2018-12-15T00:53:51.798Z,-0.20
2018-12-15T00:56:18.780Z,-0.20
2018-12-15T00:58:45.885Z,-0.20
2018-12-15T01:01:12.881Z,-0.30
2018-12-15T01:03:39.945Z,-0.30
2018-12-15T01:06:06.961Z,-0.20
2018-12-15T01:08:33.971Z,-0.20
2018-12-15T01:11:00.964Z,-0.30
2018-12-15T01:13:27.976Z,-0.30
2018-12-15T01:15:54.993Z,-0.30
2018-12-15T01:18:22.007Z,-0.40
2018-12-15T01:20:49.105Z,-0.30
2018-12-15T01:23:16.072Z,-0.30
2018-12-15T01:25:43.087Z,-0.20
2018-12-15T01:28:10.068Z,-0.20
2018-12-15T01:30:37.084Z,-0.20
2018-12-15T01:33:04.177Z,-0.10
2018-12-15T01:35:31.181Z,-0.10
2018-12-15T01:37:58.181Z,-0.10
2018-12-15T01:40:25.236Z,-0.20
2018-12-15T01:42:52.239Z,-0.30
2018-12-15T01:45:19.264Z,-0.30
2018-12-15T01:47:46.277Z,-0.30
2018-12-15T01:50:13.279Z,-0.30
2018-12-15T01:52:40.275Z,-0.30
2018-12-15T01:55:07.280Z,-0.20
2018-12-15T01:57:34.284Z,-0.30
2018-12-15T02:00:01.310Z,-0.30
2018-12-15T02:02:28.330Z,-0.30
2018-12-15T02:04:55.315Z,-0.30
2018-12-15T02:07:22.343Z,-0.30
2018-12-15T02:09:49.344Z,-0.20
2018-12-15T02:12:16.329Z,-0.20
2018-12-15T02:14:43.319Z,-0.20
2018-12-15T02:17:10.342Z,-0.20
2018-12-15T02:19:37.345Z,-0.30
2018-12-15T02:22:04.335Z,-0.30
2018-12-15T02:24:31.358Z,-0.20
2018-12-15T02:26:58.365Z,-0.30
2018-12-15T02:29:25.368Z,-0.30
2018-12-15T02:31:52.360Z,-0.30
2018-12-15T02:34:19.363Z,-0.20
2018-12-15T02:36:46.393Z,-0.20
2018-12-15T02:39:13.411Z,-0.10
2018-12-15T02:41:47.025Z,-0.10
2018-12-15T02:44:09.423Z,-0.10
2018-12-15T02:46:36.428Z,-0.10
2018-12-15T02:49:03.461Z,-0.20
2018-12-15T02:51:30.547Z,-0.20
2018-12-15T02:53:57.644Z,-0.10
2018-12-15T02:56:24.738Z,-0.30
2018-12-15T02:58:51.727Z,-0.30
2018-12-15T03:01:18.756Z,-0.30
2018-12-15T03:03:45.860Z,-0.30
2018-12-15T03:06:12.863Z,-0.30
2018-12-15T03:08:39.867Z,-0.20
2018-12-15T03:11:06.884Z,-0.10
2018-12-15T03:13:33.903Z,0.00
2018-12-15T03:16:00.941Z,-0.10
2018-12-15T03:18:27.955Z,-0.20
2018-12-15T03:20:56.865Z,-0.30
2018-12-15T03:23:23.844Z,-0.30
2018-12-15T03:25:50.843Z,-0.20
2018-12-15T03:28:17.930Z,-0.10
2018-12-15T03:30:44.958Z,-0.30
2018-12-15T03:33:12.049Z,-0.30
2018-12-15T03:35:39.033Z,-0.30
2018-12-15T03:38:06.023Z,-0.30
2018-12-15T03:40:33.023Z,-0.40
2018-12-15T03:43:00.023Z,-0.40
2018-12-15T03:45:27.024Z,-0.30
2018-12-15T03:47:56.358Z,-0.30
2018-12-15T03:50:23.058Z,-0.40
2018-12-15T03:52:50.057Z,-0.30
2018-12-15T03:55:17.054Z,-0.30
2018-12-15T03:57:44.054Z,-0.30
2018-12-15T04:00:11.066Z,-0.40
2018-12-15T04:02:38.083Z,-0.30
2018-12-15T04:05:05.103Z,-0.30
2018-12-15T04:07:32.173Z,-0.40
2018-12-15T04:09:59.261Z,-0.40
2018-12-15T04:12:26.278Z,-0.30
2018-12-15T04:14:53.259Z,-0.30
2018-12-15T04:17:20.254Z,-0.20
2018-12-15T04:19:47.261Z,-0.20
2018-12-15T04:22:16.162Z,-0.10
2018-12-15T04:24:43.333Z,-0.10
2018-12-15T04:27:10.409Z,-0.20
2018-12-15T04:29:37.449Z,-0.20
2018-12-15T04:32:04.475Z,-0.30
2018-12-15T04:34:31.473Z,-0.30
2018-12-15T04:36:58.515Z,-0.30
2018-12-15T04:39:25.551Z,-0.30
2018-12-15T04:41:52.625Z,-0.30
2018-12-15T04:44:19.627Z,-0.30
2018-12-15T04:46:48.128Z,-0.30
2018-12-15T04:49:15.113Z,-0.20
2018-12-15T04:51:42.118Z,-0.10
2018-12-15T04:54:09.096Z,-0.10
2018-12-15T04:56:36.094Z,-0.10
2018-12-15T04:59:03.099Z,-0.20
2018-12-15T05:01:30.097Z,-0.20
2018-12-15T05:03:57.181Z,-0.30
2018-12-15T05:06:24.262Z,-0.30
2018-12-15T05:08:51.277Z,-0.30
2018-12-15T05:11:18.275Z,-0.40
2018-12-15T05:13:45.312Z,-0.30
2018-12-15T05:16:12.386Z,-0.30
2018-12-15T05:18:39.377Z,-0.40
2018-12-15T05:21:06.444Z,-0.40
2018-12-15T05:23:33.440Z,-0.40
2018-12-15T05:26:00.456Z,-0.50
2018-12-15T05:28:27.465Z,-0.50
2018-12-15T05:30:54.471Z,-0.50
2018-12-15T05:33:21.486Z,-0.50
2018-12-15T05:35:48.463Z,-0.40
2018-12-15T05:38:15.461Z,-0.30
2018-12-15T05:40:42.455Z,-0.30
2018-12-15T05:43:09.455Z,-0.40
2018-12-15T05:45:36.444Z,-0.50
2018-12-15T05:48:03.454Z,-0.50
2018-12-15T05:50:30.531Z,-0.60
2018-12-15T05:52:57.532Z,-0.60
2018-12-15T05:55:24.525Z,-0.70
2018-12-15T05:57:51.527Z,-0.60
2018-12-15T06:00:18.531Z,-0.50
2018-12-15T06:02:45.544Z,-0.60
2018-12-15T06:05:12.741Z,-0.50
2018-12-15T06:07:39.755Z,-0.40
2018-12-15T06:10:06.844Z,-0.50
2018-12-15T06:12:33.844Z,-0.40
2018-12-15T06:15:00.838Z,-0.40
2018-12-15T06:17:27.844Z,-0.40
2018-12-15T06:19:54.831Z,-0.50
2018-12-15T06:22:21.839Z,-0.50
2018-12-15T06:24:48.828Z,-0.50
2018-12-15T06:27:15.919Z,-0.40
2018-12-15T06:29:42.909Z,-0.40
2018-12-15T06:32:09.902Z,-0.40
2018-12-15T06:34:36.901Z,-0.40
2018-12-15T06:37:03.913Z,-0.50
2018-12-15T06:39:30.899Z,-0.50
2018-12-15T06:41:57.917Z,-0.50
2018-12-15T06:44:24.925Z,-0.30
2018-12-15T06:46:51.937Z,0.30
2018-12-15T06:49:18.926Z,0.80
2018-12-15T06:51:45.927Z,0.80
2018-12-15T06:54:12.908Z,0.50
2018-12-15T06:56:40.114Z,0.30
2018-12-15T06:59:07.102Z,0.10
2018-12-15T07:01:34.100Z,0.00
2018-12-15T07:04:01.145Z,-0.20
2018-12-15T07:06:28.166Z,-0.30
2018-12-15T07:08:55.165Z,-0.40
2018-12-15T07:11:22.167Z,-0.40
2018-12-15T07:13:49.178Z,-0.40
2018-12-15T07:16:17.079Z,-0.50
2018-12-15T07:18:44.940Z,-0.40
2018-12-15T07:21:12.179Z,-0.40
2018-12-15T07:23:39.182Z,-0.50
2018-12-15T07:26:06.200Z,-0.50
2018-12-15T07:28:33.201Z,-0.50
2018-12-15T07:31:00.210Z,-0.50
2018-12-15T07:33:27.195Z,-0.60
2018-12-15T07:35:54.193Z,-0.50
2018-12-15T07:38:21.187Z,-0.50
2018-12-15T07:40:48.198Z,-0.40
2018-12-15T07:43:15.198Z,-0.50
2018-12-15T07:45:42.215Z,-0.50
2018-12-15T07:48:09.211Z,-0.40
2018-12-15T07:50:36.228Z,-0.50
2018-12-15T07:53:03.258Z,-0.40
2018-12-15T07:55:30.265Z,-0.40
2018-12-15T07:57:57.291Z,-0.40
2018-12-15T08:00:24.325Z,-0.40
2018-12-15T08:02:51.342Z,-0.40
2018-12-15T08:05:18.380Z,-0.30
2018-12-15T08:07:45.383Z,-0.30
2018-12-15T08:10:12.401Z,-0.30
2018-12-15T08:12:42.302Z,-0.30
2018-12-15T08:15:09.312Z,-0.30
2018-12-15T08:17:36.345Z,-0.30
2018-12-15T08:20:04.964Z,-0.30
2018-12-15T08:22:31.962Z,-0.30
2018-12-15T08:24:58.954Z,-0.30
2018-12-15T08:27:26.054Z,-0.30
2018-12-15T08:29:53.052Z,-0.20
2018-12-15T08:32:20.100Z,-0.20
2018-12-15T08:34:47.089Z,-0.10
2018-12-15T08:37:14.171Z,-0.20
2018-12-15T08:39:41.182Z,-0.20
2018-12-15T08:42:08.201Z,-0.10
2018-12-15T08:44:35.198Z,-0.10
2018-12-15T08:47:02.184Z,-0.10
2018-12-15T08:49:29.218Z,-0.10
2018-12-15T08:51:56.233Z,-0.20
2018-12-15T08:54:23.215Z,-0.10
2018-12-15T08:56:50.311Z,-0.10
2018-12-15T08:59:17.304Z,-0.10
2018-12-15T09:01:44.313Z,0.00
2018-12-15T09:04:11.287Z,0.00
2018-12-15T09:06:38.281Z,0.20
2018-12-15T09:09:05.667Z,0.50
2018-12-15T09:11:32.702Z,0.70
2018-12-15T09:13:59.695Z,0.70
2018-12-15T09:16:26.880Z,0.60
2018-12-15T09:18:54.086Z,0.70
2018-12-15T09:21:21.091Z,0.60
2018-12-15T09:23:48.084Z,0.60
2018-12-15T09:26:15.057Z,0.50
2018-12-15T09:28:42.053Z,0.40
2018-12-15T09:31:09.037Z,0.40
2018-12-15T09:33:36.050Z,0.30
2018-12-15T09:36:03.050Z,0.30
2018-12-15T09:38:30.036Z,0.30
2018-12-15T09:40:57.062Z,0.40
2018-12-15T09:43:24.075Z,0.30
2018-12-15T09:45:51.077Z,0.30
2018-12-15T09:48:18.215Z,0.30
2018-12-15T09:50:45.192Z,0.20
2018-12-15T09:53:12.191Z,0.20
2018-12-15T09:55:39.177Z,0.40
2018-12-15T09:58:06.287Z,0.40
2018-12-15T10:00:33.297Z,0.40
2018-12-15T10:03:00.275Z,0.50
2018-12-15T10:05:27.271Z,0.50
2018-12-15T10:07:54.271Z,0.50
2018-12-15T10:10:21.255Z,0.60
2018-12-15T10:12:48.250Z,0.60
2018-12-15T10:15:15.254Z,0.50
2018-12-15T10:17:42.249Z,0.50
2018-12-15T10:20:09.259Z,0.50
2018-12-15T10:22:36.256Z,0.40
2018-12-15T10:25:03.362Z,0.40
2018-12-15T10:27:30.431Z,0.40
2018-12-15T10:30:03.202Z,0.40
2018-12-15T10:32:36.226Z,0.40
2018-12-15T10:35:03.540Z,0.50
2018-12-15T10:37:30.562Z,0.50
2018-12-15T10:39:57.568Z,0.40
2018-12-15T10:42:24.545Z,0.50
2018-12-15T10:44:51.563Z,0.50
2018-12-15T10:47:18.584Z,0.50
2018-12-15T10:49:45.563Z,0.50
2018-12-15T10:52:12.559Z,0.60
2018-12-15T10:54:39.554Z,0.60
2018-12-15T10:57:06.537Z,0.60
2018-12-15T10:59:33.546Z,0.60
2018-12-15T11:02:00.526Z,0.60
2018-12-15T11:04:27.517Z,0.50
2018-12-15T11:06:54.541Z,0.50
2018-12-15T11:09:21.521Z,0.60
2018-12-15T11:11:48.537Z,0.60
2018-12-15T11:14:15.531Z,0.60
2018-12-15T11:16:42.530Z,0.60
2018-12-15T11:19:09.509Z,0.60
2018-12-15T11:21:36.535Z,0.60
2018-12-15T11:24:03.639Z,0.60
2018-12-15T11:26:30.613Z,0.60
2018-12-15T11:28:57.588Z,0.60
2018-12-15T11:31:24.586Z,0.70
2018-12-15T11:33:52.031Z,0.70
2018-12-15T11:36:19.001Z,0.70
2018-12-15T11:38:46.000Z,0.60
2018-12-15T11:41:12.987Z,0.60
2018-12-15T11:43:39.985Z,0.60
2018-12-15T11:46:06.975Z,0.60
2018-12-15T11:48:33.978Z,0.60
2018-12-15T11:51:00.977Z,0.60
2018-12-15T11:53:27.970Z,0.60
2018-12-15T11:55:54.994Z,0.60
2018-12-15T11:58:21.979Z,0.60
2018-12-15T12:00:48.968Z,0.60
2018-12-15T12:03:15.972Z,0.70
2018-12-15T12:05:42.969Z,0.60
2018-12-15T12:08:09.959Z,0.70
2018-12-15T12:10:36.997Z,0.70
2018-12-15T12:13:04.000Z,0.70
2018-12-15T12:15:30.995Z,0.60
2018-12-15T12:17:58.075Z,0.70
2018-12-15T12:20:25.122Z,0.60
2018-12-15T12:22:52.129Z,0.60
2018-12-15T12:25:19.127Z,0.60
2018-12-15T12:27:46.132Z,0.70
2018-12-15T12:30:13.144Z,0.60
2018-12-15T12:32:40.149Z,0.60
2018-12-15T12:35:07.169Z,0.50
2018-12-15T12:37:34.176Z,0.40
2018-12-15T12:40:01.165Z,0.50
2018-12-15T12:42:28.195Z,0.50
2018-12-15T12:44:55.206Z,0.60
2018-12-15T12:47:22.188Z,0.70
2018-12-15T12:49:49.185Z,0.70
2018-12-15T12:52:16.176Z,0.60
2018-12-15T12:54:43.184Z,0.60
2018-12-15T12:57:10.183Z,0.60
2018-12-15T12:59:37.278Z,0.70
2018-12-15T13:02:04.279Z,0.70
2018-12-15T13:04:31.322Z,0.80
2018-12-15T13:06:58.411Z,0.60
2018-12-15T13:09:25.421Z,0.60
2018-12-15T13:11:52.411Z,0.50
2018-12-15T13:14:19.384Z,0.50
2018-12-15T13:16:46.479Z,0.50
2018-12-15T13:19:13.498Z,0.40
2018-12-15T13:21:40.491Z,0.50
2018-12-15T13:24:07.484Z,0.40
2018-12-15T13:26:34.502Z,0.40
2018-12-15T13:29:01.500Z,0.50
2018-12-15T13:31:28.500Z,0.60
2018-12-15T13:33:55.489Z,0.60
2018-12-15T13:36:22.488Z,0.60
2018-12-15T13:38:49.498Z,0.50
2018-12-15T13:41:16.513Z,0.50
2018-12-15T13:43:43.529Z,0.50
2018-12-15T13:46:10.535Z,0.40
2018-12-15T13:48:37.598Z,0.50
2018-12-15T13:51:04.628Z,0.50
2018-12-15T13:53:31.639Z,0.60
2018-12-15T13:55:58.634Z,0.60
2018-12-15T13:58:25.653Z,0.60
2018-12-15T14:00:52.659Z,0.60
2018-12-15T14:03:19.664Z,0.60
2018-12-15T14:05:46.677Z,0.60
2018-12-15T14:08:13.684Z,0.60
2018-12-15T14:10:40.692Z,0.60
2018-12-15T14:13:07.715Z,0.60
2018-12-15T14:15:34.731Z,0.50
2018-12-15T14:18:01.910Z,0.50
2018-12-15T14:20:28.929Z,0.40
2018-12-15T14:22:55.937Z,0.40
2018-12-15T14:25:22.949Z,0.40
2018-12-15T14:27:49.995Z,0.40
2018-12-15T14:30:17.017Z,0.40
2018-12-15T14:32:44.097Z,0.50
2018-12-15T14:35:11.105Z,0.40
2018-12-15T14:37:38.172Z,0.40
2018-12-15T14:40:05.203Z,0.40
2018-12-15T14:42:32.205Z,0.30
2018-12-15T14:45:00.072Z,0.20
2018-12-15T14:47:27.180Z,0.20
2018-12-15T14:49:54.213Z,0.20
2018-12-15T14:52:21.217Z,0.20
2018-12-15T14:54:48.238Z,0.30
2018-12-15T14:57:17.128Z,0.40
2018-12-15T14:59:44.205Z,0.50
2018-12-15T15:02:11.334Z,0.50
2018-12-15T15:04:38.352Z,0.40
2018-12-15T15:07:05.335Z,0.40
2018-12-15T15:09:32.349Z,0.30
2018-12-15T15:11:59.356Z,0.30
2018-12-15T15:14:26.428Z,0.20
2018-12-15T15:16:53.426Z,0.20
2018-12-15T15:19:20.455Z,0.20
2018-12-15T15:21:47.504Z,0.20
2018-12-15T15:24:14.472Z,0.10
2018-12-15T15:26:41.481Z,0.20
2018-12-15T15:29:08.503Z,0.20
2018-12-15T15:31:35.515Z,0.10
2018-12-15T15:34:02.521Z,0.10
2018-12-15T15:36:29.511Z,0.10
2018-12-15T15:38:56.510Z,0.20
2018-12-15T15:41:23.487Z,0.10
2018-12-15T15:43:50.487Z,0.20
2018-12-15T15:46:17.694Z,0.20
2018-12-15T15:48:44.689Z,0.20
2018-12-15T15:51:11.717Z,0.10
2018-12-15T15:53:38.798Z,0.20
2018-12-15T15:56:05.879Z,0.20
2018-12-15T15:58:32.957Z,0.10
2018-12-15T16:00:59.954Z,0.20
2018-12-15T16:03:26.948Z,0.10
2018-12-15T16:05:53.989Z,0.20
2018-12-15T16:08:21.434Z,0.10
2018-12-15T16:10:48.864Z,0.00
2018-12-15T16:13:16.288Z,0.00
2018-12-15T16:15:43.839Z,0.00
2018-12-15T16:18:11.313Z,0.00
2018-12-15T16:20:43.168Z,0.10
2018-12-15T16:23:08.391Z,0.00
2018-12-15T16:25:35.946Z,0.00
2018-12-15T16:28:03.439Z,0.00
2018-12-15T16:30:30.907Z,-0.10
2018-12-15T16:32:58.425Z,0.00
2018-12-15T16:35:25.892Z,0.00
2018-12-15T16:37:53.406Z,0.00
2018-12-15T16:40:20.870Z,0.00
2018-12-15T16:42:48.333Z,0.00
2018-12-15T16:45:15.782Z,0.10
2018-12-15T16:47:43.224Z,0.00
2018-12-15T16:50:10.903Z,0.00
2018-12-15T16:52:38.698Z,0.20
2018-12-15T16:55:06.489Z,0.20
2018-12-15T16:57:33.920Z,0.20
2018-12-15T17:00:01.348Z,0.10
2018-12-15T17:02:28.914Z,0.10
2018-12-15T17:04:56.360Z,0.10
2018-12-15T17:07:23.806Z,0.00
2018-12-15T17:09:51.281Z,0.00
2018-12-15T17:12:18.780Z,-0.10
2018-12-15T17:14:46.229Z,-0.10
2018-12-15T17:17:13.942Z,-0.10
2018-12-15T17:19:41.400Z,-0.20
2018-12-15T17:22:08.963Z,-0.20
2018-12-15T17:24:36.482Z,-0.20
2018-12-15T17:27:03.972Z,-0.20
2018-12-15T17:29:31.408Z,-0.20
2018-12-15T17:31:58.873Z,-0.20
2018-12-15T17:34:26.334Z,-0.20
2018-12-15T17:36:53.796Z,-0.30
2018-12-15T17:39:21.564Z,-0.30
2018-12-15T17:41:49.022Z,-0.30
2018-12-15T17:44:17.351Z,-0.30
2018-12-15T17:46:45.108Z,-0.30
2018-12-15T17:49:13.342Z,-0.30
2018-12-15T17:51:41.003Z,-0.30
2018-12-15T17:54:08.671Z,-0.30
2018-12-15T17:56:36.471Z,-0.30
2018-12-15T17:59:04.298Z,-0.40
2018-12-15T18:01:31.767Z,-0.40
2018-12-15T18:03:59.245Z,-0.40
2018-12-15T18:06:26.718Z,-0.40
2018-12-15T18:08:54.178Z,-0.50
2018-12-15T18:11:21.626Z,-0.40
2018-12-15T18:13:49.056Z,-0.40
2018-12-15T18:16:16.632Z,-0.50
2018-12-15T18:18:44.072Z,-0.50
2018-12-15T18:21:11.654Z,-0.50
2018-12-15T18:23:39.115Z,-0.50
2018-12-15T18:26:06.570Z,-0.40
2018-12-15T18:28:34.126Z,-0.50
2018-12-15T18:31:01.616Z,-0.50
2018-12-15T18:33:29.070Z,-0.60
2018-12-15T18:35:56.533Z,-0.70
2018-12-15T18:38:23.997Z,-0.80
2018-12-15T18:40:51.477Z,-0.80
2018-12-15T18:43:18.900Z,-1.00
2018-12-15T18:45:46.385Z,-1.00
2018-12-15T18:48:13.883Z,-1.10
2018-12-15T18:50:41.328Z,-1.20
2018-12-15T18:53:08.805Z,-1.30
2018-12-15T18:55:36.266Z,-1.30
2018-12-15T18:58:05.679Z,-1.30
2018-12-15T19:00:33.192Z,-1.30
2018-12-15T19:03:00.651Z,-1.40
2018-12-15T19:05:28.091Z,-1.40
2018-12-15T19:07:55.567Z,-1.30
2018-12-15T19:10:23.458Z,-1.30
2018-12-15T19:12:50.931Z,-1.30
2018-12-15T19:15:18.497Z,-1.30
2018-12-15T19:17:45.972Z,-1.30
2018-12-15T19:20:13.671Z,-1.30
2018-12-15T19:22:42.195Z,-1.30
2018-12-15T19:25:09.677Z,-1.30
2018-12-15T19:27:37.501Z,-1.20
2018-12-15T19:30:06.383Z,-1.30
2018-12-15T19:32:33.860Z,-1.30
2018-12-15T19:35:01.292Z,-1.40
2018-12-15T19:37:28.749Z,-1.40
2018-12-15T19:39:56.391Z,-1.40
2018-12-15T19:42:24.006Z,-1.50
2018-12-15T19:44:51.675Z,-1.60
2018-12-15T19:47:19.429Z,-1.70
2018-12-15T19:49:46.863Z,-1.80
2018-12-15T19:52:14.296Z,-1.90
2018-12-15T19:54:41.782Z,-2.00
2018-12-15T19:57:09.238Z,-2.00
2018-12-15T19:59:36.663Z,-2.00
2018-12-15T20:02:04.353Z,-2.00
2018-12-15T20:04:31.822Z,-2.10
2018-12-15T20:06:59.298Z,-2.10
2018-12-15T20:09:26.749Z,-2.20
2018-12-15T20:11:54.188Z,-2.30
2018-12-15T20:14:21.624Z,-2.30
2018-12-15T20:16:49.093Z,-2.30
2018-12-15T20:19:16.547Z,-2.30
2018-12-15T20:21:44.115Z,-2.30
2018-12-15T20:24:11.577Z,-2.40
2018-12-15T20:26:39.026Z,-2.50
2018-12-15T20:29:06.502Z,-2.40
2018-12-15T20:31:34.054Z,-2.40
2018-12-15T20:34:01.550Z,-2.40
2018-12-15T20:36:28.999Z,-2.40
2018-12-15T20:38:56.466Z,-2.50
2018-12-15T20:41:23.928Z,-2.50
2018-12-15T20:43:51.388Z,-2.60
2018-12-15T20:46:18.843Z,-2.60
2018-12-15T20:48:46.314Z,-2.60
2018-12-15T20:51:13.767Z,-2.60
2018-12-15T20:53:41.228Z,-2.60
2018-12-15T20:56:08.660Z,-2.60
2018-12-15T20:58:36.132Z,-2.70
2018-12-15T21:01:03.971Z,-2.70
2018-12-15T21:03:31.412Z,-2.80
2018-12-15T21:05:58.860Z,-2.80
2018-12-15T21:08:26.323Z,-2.80
2018-12-15T21:10:53.797Z,-2.80
2018-12-15T21:13:21.227Z,-2.80
2018-12-15T21:15:50.712Z,-2.80
2018-12-15T21:18:18.190Z,-2.80
2018-12-15T21:20:45.624Z,-2.80
2018-12-15T21:23:13.089Z,-2.90
2018-12-15T21:25:40.561Z,-2.90
2018-12-15T21:28:08.150Z,-2.90
2018-12-15T21:30:35.623Z,-3.00
2018-12-15T21:33:03.123Z,-3.00
2018-12-15T21:35:30.588Z,-3.10
2018-12-15T21:37:58.063Z,-3.10
2018-12-15T21:40:25.713Z,-3.10
2018-12-15T21:42:53.921Z,-3.10
2018-12-15T21:45:21.364Z,-3.10
2018-12-15T21:47:48.825Z,-3.10
2018-12-15T21:50:16.290Z,-3.20
2018-12-15T21:52:44.327Z,-3.20
2018-12-15T21:55:12.447Z,-3.30
2018-12-15T21:57:40.289Z,-3.30
2018-12-15T22:00:07.748Z,-3.30
2018-12-15T22:02:35.237Z,-3.30
2018-12-15T22:05:03.198Z,-3.40
2018-12-15T22:07:30.652Z,-3.40
2018-12-15T22:09:58.114Z,-3.40
2018-12-15T22:12:25.582Z,-3.40
2018-12-15T22:14:53.070Z,-3.50
2018-12-15T22:17:20.488Z,-3.40
2018-12-15T22:19:47.938Z,-3.40
2018-12-15T22:22:15.421Z,-3.30
2018-12-15T22:24:43.021Z,-3.20
2018-12-15T22:27:10.563Z,-3.10
2018-12-15T22:29:38.030Z,-3.10
2018-12-15T22:32:05.531Z,-3.10
2018-12-15T22:34:33.018Z,-3.00
2018-12-15T22:37:00.560Z,-3.00
2018-12-15T22:39:28.021Z,-3.00
2018-12-15T22:41:55.473Z,-3.00
2018-12-15T22:44:22.482Z,-2.90
2018-12-15T22:46:49.473Z,-2.90
2018-12-15T22:49:16.532Z,-2.90
2018-12-15T22:51:43.622Z,-2.90
2018-12-15T22:54:10.805Z,-2.90
2018-12-15T22:56:37.787Z,-2.80
2018-12-15T22:59:04.946Z,-2.70
2018-12-15T23:01:33.870Z,-2.80
2018-12-15T23:04:00.986Z,-2.80
2018-12-15T23:06:28.009Z,-2.80
2018-12-15T23:08:54.979Z,-2.80
2018-12-15T23:11:21.991Z,-2.80
2018-12-15T23:13:48.995Z,-2.80
2018-12-15T23:16:16.009Z,-2.80
2018-12-15T23:18:43.012Z,-2.80
2018-12-15T23:21:10.042Z,-2.80
2018-12-15T23:23:37.038Z,-2.80
2018-12-15T23:26:04.067Z,-2.60
2018-12-15T23:28:31.382Z,-2.60
2018-12-15T23:30:58.420Z,-2.60
2018-12-15T23:33:25.438Z,-2.50
2018-12-15T23:35:52.440Z,-2.50
2018-12-15T23:38:19.460Z,-2.60
2018-12-15T23:40:46.533Z,-2.50
2018-12-15T23:43:13.570Z,-2.60
2018-12-15T23:45:40.584Z,-2.60
2018-12-15T23:48:07.554Z,-2.60
2018-12-15T23:50:34.563Z,-2.70
2018-12-15T23:53:01.564Z,-2.60
2018-12-15T23:55:28.571Z,-2.60
2018-12-15T23:57:55.568Z,-2.60
